Orlando, Florida
Traffic Map
Current Weather Conditions
Orlando, Florida
Clear
Clear
30°
Feels Like: 34°
Wind Chill: 30° Ceiling: Unl
Heat Index: 34° Visibility: 10mi
Dew Point: 23° Wind: 9mph
Humidity: 67% Direction: 210° (SSW)
Pressure: 29.93in Gusts: 0mph
Raw Report DataKORL 312253Z AUTO 21008KT 10SM CLR 30/23 A2993 RMK AO2 SLP137 T03000233
Traffic Incident Summary
Active as of:
Severity:
Category:
InformationThere was an issue retrieving the traffic information for this location. Please try a different location or try again shortly.
Advertisements
Track Severe Weather on mobile